sensor_id;sensor_type;location;lat;lon;timestamp;temperature;humidity
43995;DHT22;51687;52.160;5.298;2023-10-13T00:01:09;20.40;79.30
43995;DHT22;51687;52.160;5.298;2023-10-13T00:03:39;20.40;79.30
43995;DHT22;51687;52.160;5.298;2023-10-13T00:06:06;20.40;79.40
43995;DHT22;51687;52.160;5.298;2023-10-13T00:08:34;20.40;79.40
43995;DHT22;51687;52.160;5.298;2023-10-13T00:11:03;20.40;79.50
43995;DHT22;51687;52.160;5.298;2023-10-13T00:13:31;20.40;79.40
43995;DHT22;51687;52.160;5.298;2023-10-13T00:16:08;20.40;79.40
43995;DHT22;51687;52.160;5.298;2023-10-13T00:18:36;20.40;79.40
43995;DHT22;51687;52.160;5.298;2023-10-13T00:21:11;20.40;79.30
43995;DHT22;51687;52.160;5.298;2023-10-13T00:23:42;20.40;79.40
43995;DHT22;51687;52.160;5.298;2023-10-13T00:26:23;20.40;79.40
43995;DHT22;51687;52.160;5.298;2023-10-13T00:29:03;20.40;79.30
43995;DHT22;51687;52.160;5.298;2023-10-13T00:31:36;20.40;79.40
43995;DHT22;51687;52.160;5.298;2023-10-13T00:34:07;20.40;79.30
43995;DHT22;51687;52.160;5.298;2023-10-13T00:36:47;20.40;79.20
43995;DHT22;51687;52.160;5.298;2023-10-13T00:39:33;20.40;79.00
43995;DHT22;51687;52.160;5.298;2023-10-13T00:42:03;20.40;79.20
43995;DHT22;51687;52.160;5.298;2023-10-13T00:44:34;20.40;79.30
43995;DHT22;51687;52.160;5.298;2023-10-13T00:47:18;20.40;79.30
43995;DHT22;51687;52.160;5.298;2023-10-13T00:50:06;20.30;79.40
43995;DHT22;51687;52.160;5.298;2023-10-13T00:52:37;20.30;79.50
43995;DHT22;51687;52.160;5.298;2023-10-13T00:55:08;20.40;79.50
43995;DHT22;51687;52.160;5.298;2023-10-13T00:57:36;20.30;79.40
43995;DHT22;51687;52.160;5.298;2023-10-13T01:00:04;20.30;79.50
43995;DHT22;51687;52.160;5.298;2023-10-13T01:02:45;20.30;79.50
43995;DHT22;51687;52.160;5.298;2023-10-13T01:05:21;20.40;79.50
43995;DHT22;51687;52.160;5.298;2023-10-13T01:07:49;20.40;79.40
43995;DHT22;51687;52.160;5.298;2023-10-13T01:10:21;20.40;79.40
43995;DHT22;51687;52.160;5.298;2023-10-13T01:12:54;20.40;79.30
43995;DHT22;51687;52.160;5.298;2023-10-13T01:15:21;20.40;79.30
43995;DHT22;51687;52.160;5.298;2023-10-13T01:17:48;20.40;79.30
43995;DHT22;51687;52.160;5.298;2023-10-13T01:20:16;20.40;79.30
43995;DHT22;51687;52.160;5.298;2023-10-13T01:23:12;20.40;79.40
43995;DHT22;51687;52.160;5.298;2023-10-13T01:25:46;20.30;79.40
43995;DHT22;51687;52.160;5.298;2023-10-13T01:28:14;20.30;79.50
43995;DHT22;51687;52.160;5.298;2023-10-13T01:30:43;20.30;79.50
43995;DHT22;51687;52.160;5.298;2023-10-13T01:33:20;20.30;79.50
43995;DHT22;51687;52.160;5.298;2023-10-13T01:35:55;20.30;79.70
43995;DHT22;51687;52.160;5.298;2023-10-13T01:38:25;20.30;79.80
43995;DHT22;51687;52.160;5.298;2023-10-13T01:40:55;20.30;79.90
43995;DHT22;51687;52.160;5.298;2023-10-13T01:43:23;20.20;79.80
43995;DHT22;51687;52.160;5.298;2023-10-13T01:45:50;20.30;79.70
43995;DHT22;51687;52.160;5.298;2023-10-13T01:48:17;20.30;79.80
43995;DHT22;51687;52.160;5.298;2023-10-13T01:50:48;20.20;79.80
43995;DHT22;51687;52.160;5.298;2023-10-13T01:53:22;20.20;79.90
43995;DHT22;51687;52.160;5.298;2023-10-13T01:55:49;20.20;79.80
43995;DHT22;51687;52.160;5.298;2023-10-13T01:58:17;20.20;79.80
43995;DHT22;51687;52.160;5.298;2023-10-13T02:00:46;20.20;80.00
43995;DHT22;51687;52.160;5.298;2023-10-13T02:03:15;20.10;80.00
43995;DHT22;51687;52.160;5.298;2023-10-13T02:05:44;20.10;80.10
43995;DHT22;51687;52.160;5.298;2023-10-13T02:08:15;20.10;80.10
43995;DHT22;51687;52.160;5.298;2023-10-13T02:10:53;20.20;80.20
43995;DHT22;51687;52.160;5.298;2023-10-13T02:13:22;20.10;80.10
43995;DHT22;51687;52.160;5.298;2023-10-13T02:15:53;20.20;80.20
43995;DHT22;51687;52.160;5.298;2023-10-13T02:18:20;20.20;80.20
43995;DHT22;51687;52.160;5.298;2023-10-13T02:20:53;20.20;80.10
43995;DHT22;51687;52.160;5.298;2023-10-13T02:23:24;20.20;80.00
43995;DHT22;51687;52.160;5.298;2023-10-13T02:25:51;20.30;79.90
43995;DHT22;51687;52.160;5.298;2023-10-13T02:28:27;20.30;79.80
43995;DHT22;51687;52.160;5.298;2023-10-13T02:30:57;20.30;79.80
43995;DHT22;51687;52.160;5.298;2023-10-13T02:33:24;20.30;79.70
43995;DHT22;51687;52.160;5.298;2023-10-13T02:36:02;20.30;79.60
43995;DHT22;51687;52.160;5.298;2023-10-13T02:38:32;20.30;79.60
43995;DHT22;51687;52.160;5.298;2023-10-13T02:41:14;20.30;79.40
43995;DHT22;51687;52.160;5.298;2023-10-13T02:43:55;20.20;79.40
43995;DHT22;51687;52.160;5.298;2023-10-13T02:46:23;20.30;79.60
43995;DHT22;51687;52.160;5.298;2023-10-13T02:48:50;20.30;79.60
43995;DHT22;51687;52.160;5.298;2023-10-13T02:51:20;20.30;79.50
43995;DHT22;51687;52.160;5.298;2023-10-13T02:53:52;20.30;79.30
43995;DHT22;51687;52.160;5.298;2023-10-13T02:56:19;20.30;79.30
43995;DHT22;51687;52.160;5.298;2023-10-13T02:58:50;20.30;79.40
43995;DHT22;51687;52.160;5.298;2023-10-13T03:01:23;20.30;79.20
43995;DHT22;51687;52.160;5.298;2023-10-13T03:03:55;20.30;79.10
43995;DHT22;51687;52.160;5.298;2023-10-13T03:06:26;20.30;79.10
43995;DHT22;51687;52.160;5.298;2023-10-13T03:09:04;20.40;79.00
43995;DHT22;51687;52.160;5.298;2023-10-13T03:12:00;20.40;79.00
43995;DHT22;51687;52.160;5.298;2023-10-13T03:14:27;20.40;78.80
43995;DHT22;51687;52.160;5.298;2023-10-13T03:17:02;20.40;78.90
43995;DHT22;51687;52.160;5.298;2023-10-13T03:19:33;20.40;78.80
43995;DHT22;51687;52.160;5.298;2023-10-13T03:22:04;20.40;78.80
43995;DHT22;51687;52.160;5.298;2023-10-13T03:24:44;20.50;78.70
43995;DHT22;51687;52.160;5.298;2023-10-13T03:27:17;20.50;78.60
43995;DHT22;51687;52.160;5.298;2023-10-13T03:29:49;20.50;78.50
43995;DHT22;51687;52.160;5.298;2023-10-13T03:32:23;20.50;78.30
43995;DHT22;51687;52.160;5.298;2023-10-13T03:34:54;20.40;78.20
43995;DHT22;51687;52.160;5.298;2023-10-13T03:37:27;20.40;78.30
43995;DHT22;51687;52.160;5.298;2023-10-13T03:40:08;20.40;78.50
43995;DHT22;51687;52.160;5.298;2023-10-13T03:42:48;20.40;78.50
43995;DHT22;51687;52.160;5.298;2023-10-13T03:45:35;20.40;78.60
43995;DHT22;51687;52.160;5.298;2023-10-13T03:48:15;20.40;78.60
43995;DHT22;51687;52.160;5.298;2023-10-13T03:51:01;20.30;78.60
43995;DHT22;51687;52.160;5.298;2023-10-13T03:53:37;20.30;78.70
43995;DHT22;51687;52.160;5.298;2023-10-13T03:56:16;20.30;78.90
43995;DHT22;51687;52.160;5.298;2023-10-13T03:58:59;20.20;79.00
43995;DHT22;51687;52.160;5.298;2023-10-13T04:01:33;20.10;79.30
43995;DHT22;51687;52.160;5.298;2023-10-13T04:04:15;20.00;79.50
43995;DHT22;51687;52.160;5.298;2023-10-13T04:06:56;20.10;79.60
43995;DHT22;51687;52.160;5.298;2023-10-13T04:09:36;20.10;79.70
43995;DHT22;51687;52.160;5.298;2023-10-13T04:12:05;20.10;79.80
43995;DHT22;51687;52.160;5.298;2023-10-13T04:14:34;20.00;79.50
43995;DHT22;51687;52.160;5.298;2023-10-13T04:17:20;20.00;79.60
43995;DHT22;51687;52.160;5.298;2023-10-13T04:19:58;19.90;79.80
43995;DHT22;51687;52.160;5.298;2023-10-13T04:22:39;19.80;80.00
43995;DHT22;51687;52.160;5.298;2023-10-13T04:28:14;19.80;80.40
43995;DHT22;51687;52.160;5.298;2023-10-13T04:30:48;19.70;80.50
43995;DHT22;51687;52.160;5.298;2023-10-13T04:33:32;19.70;80.80
43995;DHT22;51687;52.160;5.298;2023-10-13T04:36:06;19.70;80.90
43995;DHT22;51687;52.160;5.298;2023-10-13T04:38:50;19.70;80.90
43995;DHT22;51687;52.160;5.298;2023-10-13T04:41:34;19.70;81.00
43995;DHT22;51687;52.160;5.298;2023-10-13T04:44:24;19.70;81.20
43995;DHT22;51687;52.160;5.298;2023-10-13T04:47:09;19.70;81.30
43995;DHT22;51687;52.160;5.298;2023-10-13T04:49:44;19.60;81.30
43995;DHT22;51687;52.160;5.298;2023-10-13T04:52:14;19.70;81.60
43995;DHT22;51687;52.160;5.298;2023-10-13T04:55:01;19.60;81.70
43995;DHT22;51687;52.160;5.298;2023-10-13T04:57:51;19.60;81.90
43995;DHT22;51687;52.160;5.298;2023-10-13T05:00:27;19.60;82.10
43995;DHT22;51687;52.160;5.298;2023-10-13T05:03:32;19.60;82.40
43995;DHT22;51687;52.160;5.298;2023-10-13T05:06:20;19.60;82.60
43995;DHT22;51687;52.160;5.298;2023-10-13T05:09:16;19.60;82.60
43995;DHT22;51687;52.160;5.298;2023-10-13T05:12:01;19.60;82.90
43995;DHT22;51687;52.160;5.298;2023-10-13T05:14:47;19.60;83.10
43995;DHT22;51687;52.160;5.298;2023-10-13T05:17:32;19.60;83.30
43995;DHT22;51687;52.160;5.298;2023-10-13T05:20:18;19.60;83.60
43995;DHT22;51687;52.160;5.298;2023-10-13T05:23:03;19.50;83.90
43995;DHT22;51687;52.160;5.298;2023-10-13T05:26:08;19.60;84.40
43995;DHT22;51687;52.160;5.298;2023-10-13T05:29:01;19.50;84.60
43995;DHT22;51687;52.160;5.298;2023-10-13T05:31:55;19.50;84.90
43995;DHT22;51687;52.160;5.298;2023-10-13T05:34:46;19.50;85.20
43995;DHT22;51687;52.160;5.298;2023-10-13T05:37:32;19.50;85.30
43995;DHT22;51687;52.160;5.298;2023-10-13T05:40:17;19.50;85.50
43995;DHT22;51687;52.160;5.298;2023-10-13T05:43:03;19.50;85.60
43995;DHT22;51687;52.160;5.298;2023-10-13T05:45:48;19.50;85.60
43995;DHT22;51687;52.160;5.298;2023-10-13T05:48:34;19.50;85.50
43995;DHT22;51687;52.160;5.298;2023-10-13T05:51:09;19.50;85.30
43995;DHT22;51687;52.160;5.298;2023-10-13T05:54:09;19.50;85.10
43995;DHT22;51687;52.160;5.298;2023-10-13T05:56:47;19.50;84.90
43995;DHT22;51687;52.160;5.298;2023-10-13T05:59:34;19.40;84.70
43995;DHT22;51687;52.160;5.298;2023-10-13T06:02:21;19.50;84.50
43995;DHT22;51687;52.160;5.298;2023-10-13T06:05:09;19.50;84.30
43995;DHT22;51687;52.160;5.298;2023-10-13T06:07:56;19.50;84.00
43995;DHT22;51687;52.160;5.298;2023-10-13T06:10:42;19.50;83.80
43995;DHT22;51687;52.160;5.298;2023-10-13T06:13:28;19.50;83.60
43995;DHT22;51687;52.160;5.298;2023-10-13T06:16:15;19.50;83.50
43995;DHT22;51687;52.160;5.298;2023-10-13T06:19:03;19.60;83.40
43995;DHT22;51687;52.160;5.298;2023-10-13T06:21:48;19.50;83.20
43995;DHT22;51687;52.160;5.298;2023-10-13T06:24:34;19.60;83.20
43995;DHT22;51687;52.160;5.298;2023-10-13T06:27:19;19.60;83.10
43995;DHT22;51687;52.160;5.298;2023-10-13T06:30:18;19.60;83.10
43995;DHT22;51687;52.160;5.298;2023-10-13T06:32:46;19.60;83.00
43995;DHT22;51687;52.160;5.298;2023-10-13T06:35:13;19.60;83.00
43995;DHT22;51687;52.160;5.298;2023-10-13T06:37:50;19.70;83.00
43995;DHT22;51687;52.160;5.298;2023-10-13T06:40:17;19.70;83.00
43995;DHT22;51687;52.160;5.298;2023-10-13T06:43:03;19.70;83.00
43995;DHT22;51687;52.160;5.298;2023-10-13T06:45:43;19.70;83.00
43995;DHT22;51687;52.160;5.298;2023-10-13T06:48:17;19.70;83.10
43995;DHT22;51687;52.160;5.298;2023-10-13T06:50:49;19.70;83.20
43995;DHT22;51687;52.160;5.298;2023-10-13T06:53:19;19.70;83.30
43995;DHT22;51687;52.160;5.298;2023-10-13T06:55:46;19.70;83.40
43995;DHT22;51687;52.160;5.298;2023-10-13T06:58:19;19.70;83.40
43995;DHT22;51687;52.160;5.298;2023-10-13T07:00:51;19.70;83.60
43995;DHT22;51687;52.160;5.298;2023-10-13T07:03:25;19.70;83.70
43995;DHT22;51687;52.160;5.298;2023-10-13T07:05:52;19.70;84.00
43995;DHT22;51687;52.160;5.298;2023-10-13T07:08:19;19.70;84.10
43995;DHT22;51687;52.160;5.298;2023-10-13T07:10:51;19.70;84.50
43995;DHT22;51687;52.160;5.298;2023-10-13T07:13:18;19.70;84.80
43995;DHT22;51687;52.160;5.298;2023-10-13T07:15:46;19.70;85.10
43995;DHT22;51687;52.160;5.298;2023-10-13T07:18:15;19.70;85.30
43995;DHT22;51687;52.160;5.298;2023-10-13T07:20:44;19.70;85.50
43995;DHT22;51687;52.160;5.298;2023-10-13T07:23:13;19.70;85.70
43995;DHT22;51687;52.160;5.298;2023-10-13T07:25:55;19.70;86.00
43995;DHT22;51687;52.160;5.298;2023-10-13T07:28:24;19.70;86.20
43995;DHT22;51687;52.160;5.298;2023-10-13T07:30:51;19.70;86.20
43995;DHT22;51687;52.160;5.298;2023-10-13T07:33:20;19.70;86.40
43995;DHT22;51687;52.160;5.298;2023-10-13T07:35:48;19.70;86.60
43995;DHT22;51687;52.160;5.298;2023-10-13T07:38:25;19.70;86.70
43995;DHT22;51687;52.160;5.298;2023-10-13T07:40:53;19.70;86.70
43995;DHT22;51687;52.160;5.298;2023-10-13T07:43:20;19.70;86.70
43995;DHT22;51687;52.160;5.298;2023-10-13T07:45:48;19.80;86.90
43995;DHT22;51687;52.160;5.298;2023-10-13T07:48:20;19.80;86.90
43995;DHT22;51687;52.160;5.298;2023-10-13T07:50:58;19.80;86.80
43995;DHT22;51687;52.160;5.298;2023-10-13T07:53:28;19.80;86.70
43995;DHT22;51687;52.160;5.298;2023-10-13T07:56:02;19.80;86.60
43995;DHT22;51687;52.160;5.298;2023-10-13T07:58:32;19.80;86.70
43995;DHT22;51687;52.160;5.298;2023-10-13T08:00:59;19.80;86.70
43995;DHT22;51687;52.160;5.298;2023-10-13T08:03:35;19.80;86.70
43995;DHT22;51687;52.160;5.298;2023-10-13T08:06:17;19.80;86.60
43995;DHT22;51687;52.160;5.298;2023-10-13T08:08:48;19.80;86.70
43995;DHT22;51687;52.160;5.298;2023-10-13T08:11:20;19.80;86.80
43995;DHT22;51687;52.160;5.298;2023-10-13T08:13:50;19.80;87.00
43995;DHT22;51687;52.160;5.298;2023-10-13T08:16:36;19.80;87.00
43995;DHT22;51687;52.160;5.298;2023-10-13T08:19:27;19.80;87.40
43995;DHT22;51687;52.160;5.298;2023-10-13T08:21:56;19.80;86.70
43995;DHT22;51687;52.160;5.298;2023-10-13T08:24:26;19.80;86.60
43995;DHT22;51687;52.160;5.298;2023-10-13T08:27:07;19.80;86.50
43995;DHT22;51687;52.160;5.298;2023-10-13T08:29:52;19.80;86.40
43995;DHT22;51687;52.160;5.298;2023-10-13T08:32:26;19.80;86.30
43995;DHT22;51687;52.160;5.298;2023-10-13T08:34:54;19.80;86.20
43995;DHT22;51687;52.160;5.298;2023-10-13T08:37:21;19.80;86.00
43995;DHT22;51687;52.160;5.298;2023-10-13T08:39:49;19.80;85.90
43995;DHT22;51687;52.160;5.298;2023-10-13T08:42:51;19.80;85.90
43995;DHT22;51687;52.160;5.298;2023-10-13T08:45:42;19.80;85.70
43995;DHT22;51687;52.160;5.298;2023-10-13T08:48:12;19.80;85.60
43995;DHT22;51687;52.160;5.298;2023-10-13T08:50:50;19.90;85.70
43995;DHT22;51687;52.160;5.298;2023-10-13T08:56:03;19.90;85.10
43995;DHT22;51687;52.160;5.298;2023-10-13T08:59:00;19.90;84.60
43995;DHT22;51687;52.160;5.298;2023-10-13T09:01:36;19.90;84.30
43995;DHT22;51687;52.160;5.298;2023-10-13T09:04:26;19.90;84.00
43995;DHT22;51687;52.160;5.298;2023-10-13T09:07:05;19.90;83.80
43995;DHT22;51687;52.160;5.298;2023-10-13T09:09:49;19.90;83.80
43995;DHT22;51687;52.160;5.298;2023-10-13T09:12:23;19.90;83.90
43995;DHT22;51687;52.160;5.298;2023-10-13T09:17:48;19.80;83.40
43995;DHT22;51687;52.160;5.298;2023-10-13T09:20:31;19.90;83.60
43995;DHT22;51687;52.160;5.298;2023-10-13T09:23:14;19.90;83.50
43995;DHT22;51687;52.160;5.298;2023-10-13T09:26:11;19.90;83.60
43995;DHT22;51687;52.160;5.298;2023-10-13T09:28:39;19.90;83.60
43995;DHT22;51687;52.160;5.298;2023-10-13T09:31:06;19.90;83.70
43995;DHT22;51687;52.160;5.298;2023-10-13T09:33:36;20.00;83.80
43995;DHT22;51687;52.160;5.298;2023-10-13T09:36:03;20.00;83.60
43995;DHT22;51687;52.160;5.298;2023-10-13T09:38:36;20.00;83.40
43995;DHT22;51687;52.160;5.298;2023-10-13T09:41:07;20.00;83.10
43995;DHT22;51687;52.160;5.298;2023-10-13T09:43:46;20.00;82.90
43995;DHT22;51687;52.160;5.298;2023-10-13T09:46:18;20.00;82.50
43995;DHT22;51687;52.160;5.298;2023-10-13T09:48:46;20.00;82.40
43995;DHT22;51687;52.160;5.298;2023-10-13T09:51:15;20.00;82.40
43995;DHT22;51687;52.160;5.298;2023-10-13T09:53:56;20.00;82.40
43995;DHT22;51687;52.160;5.298;2023-10-13T09:56:35;20.00;82.40
43995;DHT22;51687;52.160;5.298;2023-10-13T09:59:24;20.00;82.20
43995;DHT22;51687;52.160;5.298;2023-10-13T10:02:06;20.10;81.90
43995;DHT22;51687;52.160;5.298;2023-10-13T10:04:52;20.10;81.80
43995;DHT22;51687;52.160;5.298;2023-10-13T10:07:28;20.10;81.90
43995;DHT22;51687;52.160;5.298;2023-10-13T10:10:01;20.10;82.20
43995;DHT22;51687;52.160;5.298;2023-10-13T10:12:38;20.10;81.80
43995;DHT22;51687;52.160;5.298;2023-10-13T10:17:47;20.10;81.00
43995;DHT22;51687;52.160;5.298;2023-10-13T10:20:16;20.10;80.90
43995;DHT22;51687;52.160;5.298;2023-10-13T10:22:59;20.10;81.20
43995;DHT22;51687;52.160;5.298;2023-10-13T10:25:31;20.20;81.50
43995;DHT22;51687;52.160;5.298;2023-10-13T10:28:06;20.20;81.70
43995;DHT22;51687;52.160;5.298;2023-10-13T10:30:37;20.20;81.40
43995;DHT22;51687;52.160;5.298;2023-10-13T10:33:09;20.20;81.50
43995;DHT22;51687;52.160;5.298;2023-10-13T10:35:44;20.20;81.30
43995;DHT22;51687;52.160;5.298;2023-10-13T10:38:13;20.30;80.90
43995;DHT22;51687;52.160;5.298;2023-10-13T10:43:36;20.30;81.00
43995;DHT22;51687;52.160;5.298;2023-10-13T10:46:13;20.30;81.20
43995;DHT22;51687;52.160;5.298;2023-10-13T10:48:44;20.30;80.60
43995;DHT22;51687;52.160;5.298;2023-10-13T10:51:13;20.30;80.30
43995;DHT22;51687;52.160;5.298;2023-10-13T10:53:42;20.30;79.90
43995;DHT22;51687;52.160;5.298;2023-10-13T10:56:14;20.40;79.90
43995;DHT22;51687;52.160;5.298;2023-10-13T10:58:50;20.40;80.10
43995;DHT22;51687;52.160;5.298;2023-10-13T11:01:23;20.40;80.00
43995;DHT22;51687;52.160;5.298;2023-10-13T11:04:01;20.40;79.90
43995;DHT22;51687;52.160;5.298;2023-10-13T11:06:35;20.40;79.80
43995;DHT22;51687;52.160;5.298;2023-10-13T11:09:12;20.50;79.50
43995;DHT22;51687;52.160;5.298;2023-10-13T11:12:15;20.50;79.00
43995;DHT22;51687;52.160;5.298;2023-10-13T11:14:44;20.50;78.90
43995;DHT22;51687;52.160;5.298;2023-10-13T11:17:19;20.50;78.80
43995;DHT22;51687;52.160;5.298;2023-10-13T11:19:53;20.50;78.50
43995;DHT22;51687;52.160;5.298;2023-10-13T11:22:20;20.50;78.70
43995;DHT22;51687;52.160;5.298;2023-10-13T11:25:01;20.50;78.20
43995;DHT22;51687;52.160;5.298;2023-10-13T11:27:41;20.50;77.80
43995;DHT22;51687;52.160;5.298;2023-10-13T11:30:18;20.50;77.60
43995;DHT22;51687;52.160;5.298;2023-10-13T11:33:02;20.60;77.20
43995;DHT22;51687;52.160;5.298;2023-10-13T11:35:34;20.60;76.90
43995;DHT22;51687;52.160;5.298;2023-10-13T11:38:29;20.60;77.10
43995;DHT22;51687;52.160;5.298;2023-10-13T11:41:09;20.60;75.80
43995;DHT22;51687;52.160;5.298;2023-10-13T11:43:41;20.60;75.60
43995;DHT22;51687;52.160;5.298;2023-10-13T11:46:27;20.60;75.30
43995;DHT22;51687;52.160;5.298;2023-10-13T11:49:05;20.60;74.30
43995;DHT22;51687;52.160;5.298;2023-10-13T11:51:44;20.60;74.60
43995;DHT22;51687;52.160;5.298;2023-10-13T11:54:18;20.70;74.40
43995;DHT22;51687;52.160;5.298;2023-10-13T11:56:46;20.70;73.60
43995;DHT22;51687;52.160;5.298;2023-10-13T11:59:13;20.70;73.60
43995;DHT22;51687;52.160;5.298;2023-10-13T12:01:51;20.70;73.90
43995;DHT22;51687;52.160;5.298;2023-10-13T12:04:37;20.70;73.60
43995;DHT22;51687;52.160;5.298;2023-10-13T12:07:10;20.70;72.70
43995;DHT22;51687;52.160;5.298;2023-10-13T12:09:55;20.80;72.60
43995;DHT22;51687;52.160;5.298;2023-10-13T12:12:26;20.80;72.40
43995;DHT22;51687;52.160;5.298;2023-10-13T12:17:26;20.80;72.30
43995;DHT22;51687;52.160;5.298;2023-10-13T12:20:05;20.80;72.00
43995;DHT22;51687;52.160;5.298;2023-10-13T12:22:33;20.80;71.50
43995;DHT22;51687;52.160;5.298;2023-10-13T12:25:05;20.80;71.30
43995;DHT22;51687;52.160;5.298;2023-10-13T12:27:48;20.80;71.30
43995;DHT22;51687;52.160;5.298;2023-10-13T12:30:17;20.80;71.20
43995;DHT22;51687;52.160;5.298;2023-10-13T12:32:51;20.90;71.30
43995;DHT22;51687;52.160;5.298;2023-10-13T12:35:33;20.90;70.50
43995;DHT22;51687;52.160;5.298;2023-10-13T12:38:11;20.90;71.00
43995;DHT22;51687;52.160;5.298;2023-10-13T12:41:06;20.90;70.80
43995;DHT22;51687;52.160;5.298;2023-10-13T12:44:01;20.90;70.80
43995;DHT22;51687;52.160;5.298;2023-10-13T12:46:46;21.00;70.30
43995;DHT22;51687;52.160;5.298;2023-10-13T12:49:36;21.00;70.20
43995;DHT22;51687;52.160;5.298;2023-10-13T12:52:10;21.00;71.20
43995;DHT22;51687;52.160;5.298;2023-10-13T13:09:42;21.00;70.00
43995;DHT22;51687;52.160;5.298;2023-10-13T13:12:09;21.10;71.30
43995;DHT22;51687;52.160;5.298;2023-10-13T20:33:42;21.10;71.90
43995;DHT22;51687;52.160;5.298;2023-10-13T20:36:10;19.60;82.50
43995;DHT22;51687;52.160;5.298;2023-10-13T20:38:37;19.50;81.60
43995;DHT22;51687;52.160;5.298;2023-10-13T20:41:05;19.50;81.60
43995;DHT22;51687;52.160;5.298;2023-10-13T20:43:37;19.40;81.40
43995;DHT22;51687;52.160;5.298;2023-10-13T20:46:06;19.40;81.20
43995;DHT22;51687;52.160;5.298;2023-10-13T20:48:33;19.40;80.90
43995;DHT22;51687;52.160;5.298;2023-10-13T20:51:02;19.40;80.90
43995;DHT22;51687;52.160;5.298;2023-10-13T20:53:32;19.30;80.60
43995;DHT22;51687;52.160;5.298;2023-10-13T20:56:04;19.30;80.70
43995;DHT22;51687;52.160;5.298;2023-10-13T20:58:32;19.30;80.90
43995;DHT22;51687;52.160;5.298;2023-10-13T21:01:05;19.30;80.80
43995;DHT22;51687;52.160;5.298;2023-10-13T21:03:35;19.30;80.80
43995;DHT22;51687;52.160;5.298;2023-10-13T21:06:06;19.30;80.80
43995;DHT22;51687;52.160;5.298;2023-10-13T21:08:40;19.30;80.70
43995;DHT22;51687;52.160;5.298;2023-10-13T21:11:13;19.30;81.00
43995;DHT22;51687;52.160;5.298;2023-10-13T21:13:39;19.30;80.30
43995;DHT22;51687;52.160;5.298;2023-10-13T21:16:08;19.30;80.50
43995;DHT22;51687;52.160;5.298;2023-10-13T21:18:42;19.30;80.60
43995;DHT22;51687;52.160;5.298;2023-10-13T21:21:17;19.30;80.80
43995;DHT22;51687;52.160;5.298;2023-10-13T21:23:50;19.30;81.00
43995;DHT22;51687;52.160;5.298;2023-10-13T21:26:22;19.30;81.20
43995;DHT22;51687;52.160;5.298;2023-10-13T21:28:49;19.30;81.30
43995;DHT22;51687;52.160;5.298;2023-10-13T21:31:17;19.30;81.40
43995;DHT22;51687;52.160;5.298;2023-10-13T21:33:48;19.30;81.60
43995;DHT22;51687;52.160;5.298;2023-10-13T21:36:16;19.30;81.80
43995;DHT22;51687;52.160;5.298;2023-10-13T21:38:44;19.30;82.00
43995;DHT22;51687;52.160;5.298;2023-10-13T21:41:18;19.30;82.30
43995;DHT22;51687;52.160;5.298;2023-10-13T23:01:05;19.40;82.70
43995;DHT22;51687;52.160;5.298;2023-10-13T23:03:32;19.30;74.20
43995;DHT22;51687;52.160;5.298;2023-10-13T23:06:02;19.20;74.10
43995;DHT22;51687;52.160;5.298;2023-10-13T23:08:31;19.30;73.90
43995;DHT22;51687;52.160;5.298;2023-10-13T23:11:22;19.20;73.80
43995;DHT22;51687;52.160;5.298;2023-10-13T23:13:58;19.20;74.10
43995;DHT22;51687;52.160;5.298;2023-10-13T23:16:26;19.20;74.20
43995;DHT22;51687;52.160;5.298;2023-10-13T23:18:55;19.20;74.00
43995;DHT22;51687;52.160;5.298;2023-10-13T23:21:22;19.20;74.00
43995;DHT22;51687;52.160;5.298;2023-10-13T23:23:49;19.20;74.20
43995;DHT22;51687;52.160;5.298;2023-10-13T23:26:20;19.20;74.00
43995;DHT22;51687;52.160;5.298;2023-10-13T23:28:49;19.20;73.80
43995;DHT22;51687;52.160;5.298;2023-10-13T23:31:23;19.20;74.10
43995;DHT22;51687;52.160;5.298;2023-10-13T23:33:51;19.10;74.50
43995;DHT22;51687;52.160;5.298;2023-10-13T23:36:20;19.10;74.50
43995;DHT22;51687;52.160;5.298;2023-10-13T23:38:47;19.10;74.50
43995;DHT22;51687;52.160;5.298;2023-10-13T23:41:26;19.10;74.60
43995;DHT22;51687;52.160;5.298;2023-10-13T23:43:58;19.10;74.80
43995;DHT22;51687;52.160;5.298;2023-10-13T23:46:26;19.10;74.40
43995;DHT22;51687;52.160;5.298;2023-10-13T23:48:53;19.10;74.30
43995;DHT22;51687;52.160;5.298;2023-10-13T23:51:21;19.10;74.60
43995;DHT22;51687;52.160;5.298;2023-10-13T23:53:54;19.00;74.50
